sensor_id;sensor_type;location;lat;lon;timestamp;P1;durP1;ratioP1;P2;durP2;ratioP2
38683;SDS011;24910;53.248;-6.134;2023-02-28T00:01:43;7.15;;;2.08;;
38683;SDS011;24910;53.248;-6.134;2023-02-28T00:04:12;9.15;;;2.17;;
38683;SDS011;24910;53.248;-6.134;2023-02-28T00:06:41;12.20;;;2.50;;
38683;SDS011;24910;53.248;-6.134;2023-02-28T00:09:10;14.82;;;2.80;;
38683;SDS011;24910;53.248;-6.134;2023-02-28T00:11:40;11.27;;;2.55;;
38683;SDS011;24910;53.248;-6.134;2023-02-28T00:14:09;9.80;;;2.40;;
38683;SDS011;24910;53.248;-6.134;2023-02-28T00:16:38;5.40;;;2.20;;
38683;SDS011;24910;53.248;-6.134;2023-02-28T00:19:07;6.88;;;2.03;;
38683;SDS011;24910;53.248;-6.134;2023-02-28T00:21:40;9.60;;;1.95;;
38683;SDS011;24910;53.248;-6.134;2023-02-28T00:24:10;6.03;;;1.90;;
38683;SDS011;24910;53.248;-6.134;2023-02-28T00:26:40;11.07;;;1.85;;
38683;SDS011;24910;53.248;-6.134;2023-02-28T00:29:09;7.70;;;1.63;;
38683;SDS011;24910;53.248;-6.134;2023-02-28T00:31:38;9.32;;;1.70;;
38683;SDS011;24910;53.248;-6.134;2023-02-28T00:34:07;5.47;;;1.50;;
38683;SDS011;24910;53.248;-6.134;2023-02-28T00:36:36;4.30;;;1.45;;
38683;SDS011;24910;53.248;-6.134;2023-02-28T00:39:06;6.65;;;1.70;;
38683;SDS011;24910;53.248;-6.134;2023-02-28T00:41:35;9.32;;;1.77;;
38683;SDS011;24910;53.248;-6.134;2023-02-28T00:44:05;9.75;;;1.55;;
38683;SDS011;24910;53.248;-6.134;2023-02-28T00:46:34;7.43;;;1.50;;
38683;SDS011;24910;53.248;-6.134;2023-02-28T00:49:03;4.03;;;1.50;;
38683;SDS011;24910;53.248;-6.134;2023-02-28T00:51:35;2.22;;;1.35;;
38683;SDS011;24910;53.248;-6.134;2023-02-28T00:54:04;4.30;;;1.25;;
38683;SDS011;24910;53.248;-6.134;2023-02-28T00:56:33;4.85;;;1.45;;
38683;SDS011;24910;53.248;-6.134;2023-02-28T00:59:03;6.97;;;1.53;;
38683;SDS011;24910;53.248;-6.134;2023-02-28T01:01:34;9.70;;;1.40;;
38683;SDS011;24910;53.248;-6.134;2023-02-28T01:04:03;5.13;;;1.27;;
38683;SDS011;24910;53.248;-6.134;2023-02-28T01:06:33;4.80;;;1.33;;
38683;SDS011;24910;53.248;-6.134;2023-02-28T01:09:03;5.32;;;1.60;;
38683;SDS011;24910;53.248;-6.134;2023-02-28T01:11:32;4.20;;;1.30;;
38683;SDS011;24910;53.248;-6.134;2023-02-28T01:14:02;4.75;;;1.42;;
38683;SDS011;24910;53.248;-6.134;2023-02-28T01:16:33;7.03;;;1.40;;
38683;SDS011;24910;53.248;-6.134;2023-02-28T01:19:02;4.22;;;1.50;;
38683;SDS011;24910;53.248;-6.134;2023-02-28T01:21:31;5.20;;;1.70;;
38683;SDS011;24910;53.248;-6.134;2023-02-28T01:24:02;8.05;;;1.55;;
38683;SDS011;24910;53.248;-6.134;2023-02-28T01:26:32;4.55;;;1.67;;
38683;SDS011;24910;53.248;-6.134;2023-02-28T01:29:01;4.88;;;1.27;;
38683;SDS011;24910;53.248;-6.134;2023-02-28T01:31:31;10.98;;;1.42;;
38683;SDS011;24910;53.248;-6.134;2023-02-28T01:34:01;3.88;;;1.10;;
38683;SDS011;24910;53.248;-6.134;2023-02-28T01:36:31;7.07;;;1.23;;
38683;SDS011;24910;53.248;-6.134;2023-02-28T01:39:00;10.77;;;1.27;;
38683;SDS011;24910;53.248;-6.134;2023-02-28T01:41:30;8.00;;;1.30;;
38683;SDS011;24910;53.248;-6.134;2023-02-28T01:44:02;5.88;;;1.48;;
38683;SDS011;24910;53.248;-6.134;2023-02-28T01:46:33;6.22;;;1.40;;
38683;SDS011;24910;53.248;-6.134;2023-02-28T01:49:06;8.98;;;1.95;;
38683;SDS011;24910;53.248;-6.134;2023-02-28T01:51:40;3.70;;;1.30;;
38683;SDS011;24910;53.248;-6.134;2023-02-28T01:54:14;4.63;;;1.48;;
38683;SDS011;24910;53.248;-6.134;2023-02-28T01:56:47;8.00;;;1.65;;
38683;SDS011;24910;53.248;-6.134;2023-02-28T01:59:21;5.60;;;1.50;;
38683;SDS011;24910;53.248;-6.134;2023-02-28T02:01:53;8.95;;;1.58;;
38683;SDS011;24910;53.248;-6.134;2023-02-28T02:04:24;6.38;;;1.60;;
38683;SDS011;24910;53.248;-6.134;2023-02-28T02:07:00;8.75;;;1.73;;
38683;SDS011;24910;53.248;-6.134;2023-02-28T02:09:30;5.60;;;1.80;;
38683;SDS011;24910;53.248;-6.134;2023-02-28T02:11:59;7.30;;;1.90;;
38683;SDS011;24910;53.248;-6.134;2023-02-28T02:14:40;3.60;;;1.60;;
38683;SDS011;24910;53.248;-6.134;2023-02-28T02:17:20;10.30;;;2.38;;
38683;SDS011;24910;53.248;-6.134;2023-02-28T02:26:21;4.35;;;1.60;;
38683;SDS011;24910;53.248;-6.134;2023-02-28T02:29:21;4.10;;;1.80;;
38683;SDS011;24910;53.248;-6.134;2023-02-28T02:35:19;11.13;;;2.30;;
38683;SDS011;24910;53.248;-6.134;2023-02-28T02:37:55;10.30;;;1.98;;
38683;SDS011;24910;53.248;-6.134;2023-02-28T02:40:32;5.90;;;1.88;;
38683;SDS011;24910;53.248;-6.134;2023-02-28T02:43:05;10.57;;;1.95;;
38683;SDS011;24910;53.248;-6.134;2023-02-28T02:45:40;9.00;;;2.17;;
38683;SDS011;24910;53.248;-6.134;2023-02-28T02:48:15;5.70;;;2.20;;
38683;SDS011;24910;53.248;-6.134;2023-02-28T02:50:49;9.80;;;2.47;;
38683;SDS011;24910;53.248;-6.134;2023-02-28T02:53:21;9.27;;;2.60;;
38683;SDS011;24910;53.248;-6.134;2023-02-28T02:55:59;6.85;;;2.53;;
38683;SDS011;24910;53.248;-6.134;2023-02-28T02:58:33;4.68;;;2.22;;
38683;SDS011;24910;53.248;-6.134;2023-02-28T03:01:10;6.32;;;2.03;;
38683;SDS011;24910;53.248;-6.134;2023-02-28T03:03:46;5.72;;;1.70;;
38683;SDS011;24910;53.248;-6.134;2023-02-28T03:06:16;4.57;;;1.65;;
38683;SDS011;24910;53.248;-6.134;2023-02-28T03:08:45;8.38;;;1.77;;
38683;SDS011;24910;53.248;-6.134;2023-02-28T03:11:15;4.13;;;2.00;;
38683;SDS011;24910;53.248;-6.134;2023-02-28T03:13:49;4.77;;;1.80;;
38683;SDS011;24910;53.248;-6.134;2023-02-28T03:19:33;5.15;;;1.67;;
38683;SDS011;24910;53.248;-6.134;2023-02-28T03:22:22;7.30;;;2.10;;
38683;SDS011;24910;53.248;-6.134;2023-02-28T03:25:17;7.97;;;2.47;;
38683;SDS011;24910;53.248;-6.134;2023-02-28T03:28:00;4.80;;;1.85;;
38683;SDS011;24910;53.248;-6.134;2023-02-28T03:30:35;8.63;;;1.80;;
38683;SDS011;24910;53.248;-6.134;2023-02-28T03:33:10;5.00;;;1.80;;
38683;SDS011;24910;53.248;-6.134;2023-02-28T03:35:43;4.25;;;1.70;;
38683;SDS011;24910;53.248;-6.134;2023-02-28T03:38:18;7.95;;;2.00;;
38683;SDS011;24910;53.248;-6.134;2023-02-28T03:40:55;7.20;;;1.92;;
38683;SDS011;24910;53.248;-6.134;2023-02-28T03:43:31;4.97;;;1.70;;
38683;SDS011;24910;53.248;-6.134;2023-02-28T03:46:06;9.93;;;1.85;;
38683;SDS011;24910;53.248;-6.134;2023-02-28T03:48:39;5.32;;;1.48;;
38683;SDS011;24910;53.248;-6.134;2023-02-28T03:51:12;7.32;;;1.65;;
38683;SDS011;24910;53.248;-6.134;2023-02-28T03:53:47;11.38;;;1.70;;
38683;SDS011;24910;53.248;-6.134;2023-02-28T03:56:21;6.03;;;1.60;;
38683;SDS011;24910;53.248;-6.134;2023-02-28T03:58:57;7.45;;;1.75;;
38683;SDS011;24910;53.248;-6.134;2023-02-28T04:01:30;6.35;;;1.88;;
38683;SDS011;24910;53.248;-6.134;2023-02-28T04:04:03;9.75;;;2.65;;
38683;SDS011;24910;53.248;-6.134;2023-02-28T04:06:33;11.98;;;1.73;;
38683;SDS011;24910;53.248;-6.134;2023-02-28T04:09:04;6.50;;;1.42;;
38683;SDS011;24910;53.248;-6.134;2023-02-28T04:11:35;7.18;;;1.50;;
38683;SDS011;24910;53.248;-6.134;2023-02-28T04:14:06;5.72;;;1.58;;
38683;SDS011;24910;53.248;-6.134;2023-02-28T04:16:36;15.60;;;2.00;;
38683;SDS011;24910;53.248;-6.134;2023-02-28T04:19:07;17.23;;;1.92;;
38683;SDS011;24910;53.248;-6.134;2023-02-28T04:21:38;5.68;;;1.60;;
38683;SDS011;24910;53.248;-6.134;2023-02-28T04:24:10;7.97;;;1.65;;
38683;SDS011;24910;53.248;-6.134;2023-02-28T04:26:42;13.10;;;2.50;;
38683;SDS011;24910;53.248;-6.134;2023-02-28T04:29:13;10.30;;;2.47;;
38683;SDS011;24910;53.248;-6.134;2023-02-28T04:31:46;7.53;;;1.67;;
38683;SDS011;24910;53.248;-6.134;2023-02-28T04:34:15;9.40;;;1.73;;
38683;SDS011;24910;53.248;-6.134;2023-02-28T04:36:46;8.15;;;1.80;;
38683;SDS011;24910;53.248;-6.134;2023-02-28T04:39:35;8.45;;;1.52;;
38683;SDS011;24910;53.248;-6.134;2023-02-28T04:42:05;4.20;;;1.58;;
38683;SDS011;24910;53.248;-6.134;2023-02-28T04:44:34;6.78;;;1.30;;
38683;SDS011;24910;53.248;-6.134;2023-02-28T04:47:03;8.90;;;1.88;;
38683;SDS011;24910;53.248;-6.134;2023-02-28T04:49:33;8.63;;;1.58;;
38683;SDS011;24910;53.248;-6.134;2023-02-28T04:52:02;6.05;;;1.30;;
38683;SDS011;24910;53.248;-6.134;2023-02-28T04:54:31;4.60;;;1.50;;
38683;SDS011;24910;53.248;-6.134;2023-02-28T04:57:01;2.30;;;1.15;;
38683;SDS011;24910;53.248;-6.134;2023-02-28T05:02:00;2.05;;;0.98;;
38683;SDS011;24910;53.248;-6.134;2023-02-28T05:04:34;3.20;;;0.82;;
38683;SDS011;24910;53.248;-6.134;2023-02-28T05:07:03;2.10;;;1.00;;
38683;SDS011;24910;53.248;-6.134;2023-02-28T05:09:32;1.60;;;1.10;;
38683;SDS011;24910;53.248;-6.134;2023-02-28T05:12:03;3.05;;;0.73;;
38683;SDS011;24910;53.248;-6.134;2023-02-28T05:14:32;1.70;;;0.87;;
38683;SDS011;24910;53.248;-6.134;2023-02-28T05:17:01;2.35;;;0.90;;
38683;SDS011;24910;53.248;-6.134;2023-02-28T05:19:30;2.17;;;1.08;;
38683;SDS011;24910;53.248;-6.134;2023-02-28T05:21:59;2.60;;;0.80;;
38683;SDS011;24910;53.248;-6.134;2023-02-28T05:24:29;4.13;;;0.75;;
38683;SDS011;24910;53.248;-6.134;2023-02-28T05:26:58;3.70;;;1.65;;
38683;SDS011;24910;53.248;-6.134;2023-02-28T05:29:29;5.60;;;0.90;;
38683;SDS011;24910;53.248;-6.134;2023-02-28T05:31:58;2.50;;;0.90;;
38683;SDS011;24910;53.248;-6.134;2023-02-28T05:34:27;3.42;;;0.98;;
38683;SDS011;24910;53.248;-6.134;2023-02-28T05:36:56;3.50;;;1.00;;
38683;SDS011;24910;53.248;-6.134;2023-02-28T05:39:25;3.08;;;0.95;;
38683;SDS011;24910;53.248;-6.134;2023-02-28T05:41:54;4.93;;;0.95;;
38683;SDS011;24910;53.248;-6.134;2023-02-28T05:44:23;2.88;;;0.80;;
38683;SDS011;24910;53.248;-6.134;2023-02-28T05:46:54;2.97;;;0.90;;
38683;SDS011;24910;53.248;-6.134;2023-02-28T05:49:23;5.03;;;1.00;;
38683;SDS011;24910;53.248;-6.134;2023-02-28T05:51:52;5.25;;;1.13;;
38683;SDS011;24910;53.248;-6.134;2023-02-28T05:54:21;2.92;;;0.93;;
38683;SDS011;24910;53.248;-6.134;2023-02-28T05:56:50;0.90;;;0.80;;
38683;SDS011;24910;53.248;-6.134;2023-02-28T05:59:19;3.90;;;0.98;;
38683;SDS011;24910;53.248;-6.134;2023-02-28T06:01:48;4.20;;;0.90;;
38683;SDS011;24910;53.248;-6.134;2023-02-28T06:04:19;4.15;;;1.15;;
38683;SDS011;24910;53.248;-6.134;2023-02-28T06:06:58;3.75;;;1.10;;
38683;SDS011;24910;53.248;-6.134;2023-02-28T06:09:27;3.55;;;1.27;;
38683;SDS011;24910;53.248;-6.134;2023-02-28T06:11:57;2.92;;;1.02;;
38683;SDS011;24910;53.248;-6.134;2023-02-28T06:14:26;4.30;;;1.23;;
38683;SDS011;24910;53.248;-6.134;2023-02-28T06:16:55;6.22;;;1.75;;
38683;SDS011;24910;53.248;-6.134;2023-02-28T06:19:27;3.03;;;1.77;;
38683;SDS011;24910;53.248;-6.134;2023-02-28T06:21:57;3.67;;;1.35;;
38683;SDS011;24910;53.248;-6.134;2023-02-28T06:24:26;2.95;;;1.10;;
38683;SDS011;24910;53.248;-6.134;2023-02-28T06:26:58;3.20;;;1.50;;
38683;SDS011;24910;53.248;-6.134;2023-02-28T06:29:32;2.65;;;1.02;;
38683;SDS011;24910;53.248;-6.134;2023-02-28T06:32:02;7.53;;;1.10;;
38683;SDS011;24910;53.248;-6.134;2023-02-28T06:34:32;3.42;;;1.15;;
38683;SDS011;24910;53.248;-6.134;2023-02-28T06:37:01;5.75;;;1.30;;
38683;SDS011;24910;53.248;-6.134;2023-02-28T06:39:31;2.53;;;1.10;;
38683;SDS011;24910;53.248;-6.134;2023-02-28T06:42:01;4.45;;;1.40;;
38683;SDS011;24910;53.248;-6.134;2023-02-28T06:44:30;3.00;;;1.10;;
38683;SDS011;24910;53.248;-6.134;2023-02-28T06:47:02;1.88;;;1.17;;
38683;SDS011;24910;53.248;-6.134;2023-02-28T06:49:35;2.15;;;1.40;;
38683;SDS011;24910;53.248;-6.134;2023-02-28T06:52:06;3.33;;;1.20;;
38683;SDS011;24910;53.248;-6.134;2023-02-28T06:54:36;3.45;;;1.75;;
38683;SDS011;24910;53.248;-6.134;2023-02-28T06:57:05;2.25;;;1.42;;
38683;SDS011;24910;53.248;-6.134;2023-02-28T06:59:34;5.57;;;1.65;;
38683;SDS011;24910;53.248;-6.134;2023-02-28T07:02:03;3.38;;;1.40;;
38683;SDS011;24910;53.248;-6.134;2023-02-28T07:04:35;2.47;;;1.50;;
38683;SDS011;24910;53.248;-6.134;2023-02-28T07:07:06;2.15;;;1.55;;
38683;SDS011;24910;53.248;-6.134;2023-02-28T07:09:35;4.80;;;1.95;;
38683;SDS011;24910;53.248;-6.134;2023-02-28T07:12:05;3.03;;;1.80;;
38683;SDS011;24910;53.248;-6.134;2023-02-28T07:14:35;3.75;;;1.77;;
38683;SDS011;24910;53.248;-6.134;2023-02-28T07:17:06;3.35;;;1.70;;
38683;SDS011;24910;53.248;-6.134;2023-02-28T07:19:37;3.90;;;1.83;;
38683;SDS011;24910;53.248;-6.134;2023-02-28T07:22:07;2.47;;;1.83;;
38683;SDS011;24910;53.248;-6.134;2023-02-28T07:24:36;4.30;;;2.10;;
38683;SDS011;24910;53.248;-6.134;2023-02-28T07:27:05;7.20;;;1.95;;
38683;SDS011;24910;53.248;-6.134;2023-02-28T07:29:34;4.10;;;2.05;;
38683;SDS011;24910;53.248;-6.134;2023-02-28T07:32:04;3.72;;;2.28;;
38683;SDS011;24910;53.248;-6.134;2023-02-28T07:34:33;2.92;;;2.10;;
38683;SDS011;24910;53.248;-6.134;2023-02-28T07:37:04;3.00;;;2.28;;
38683;SDS011;24910;53.248;-6.134;2023-02-28T07:39:33;4.22;;;2.20;;
38683;SDS011;24910;53.248;-6.134;2023-02-28T07:42:03;9.45;;;1.70;;
38683;SDS011;24910;53.248;-6.134;2023-02-28T07:44:33;4.60;;;2.10;;
38683;SDS011;24910;53.248;-6.134;2023-02-28T07:47:02;4.82;;;1.50;;
38683;SDS011;24910;53.248;-6.134;2023-02-28T07:49:32;6.85;;;1.60;;
38683;SDS011;24910;53.248;-6.134;2023-02-28T07:52:01;7.28;;;1.67;;
38683;SDS011;24910;53.248;-6.134;2023-02-28T07:54:32;10.57;;;1.65;;
38683;SDS011;24910;53.248;-6.134;2023-02-28T07:57:01;5.72;;;1.33;;
38683;SDS011;24910;53.248;-6.134;2023-02-28T07:59:31;5.63;;;1.10;;
38683;SDS011;24910;53.248;-6.134;2023-02-28T08:02:00;8.82;;;1.58;;
38683;SDS011;24910;53.248;-6.134;2023-02-28T08:04:31;7.85;;;1.67;;
38683;SDS011;24910;53.248;-6.134;2023-02-28T08:07:00;6.72;;;1.52;;
38683;SDS011;24910;53.248;-6.134;2023-02-28T08:09:31;12.25;;;1.45;;
38683;SDS011;24910;53.248;-6.134;2023-02-28T08:14:29;5.75;;;1.30;;
38683;SDS011;24910;53.248;-6.134;2023-02-28T08:16:59;4.38;;;1.10;;
38683;SDS011;24910;53.248;-6.134;2023-02-28T08:19:28;2.33;;;1.00;;
38683;SDS011;24910;53.248;-6.134;2023-02-28T08:21:57;4.50;;;1.00;;
38683;SDS011;24910;53.248;-6.134;2023-02-28T08:24:26;5.55;;;1.00;;
38683;SDS011;24910;53.248;-6.134;2023-02-28T08:26:57;5.72;;;1.15;;
38683;SDS011;24910;53.248;-6.134;2023-02-28T08:29:26;3.90;;;1.10;;
38683;SDS011;24910;53.248;-6.134;2023-02-28T08:31:57;3.92;;;0.85;;
38683;SDS011;24910;53.248;-6.134;2023-02-28T08:34:26;4.05;;;1.10;;
38683;SDS011;24910;53.248;-6.134;2023-02-28T08:36:55;3.35;;;1.05;;
38683;SDS011;24910;53.248;-6.134;2023-02-28T08:39:24;5.05;;;1.10;;
38683;SDS011;24910;53.248;-6.134;2023-02-28T08:41:53;7.75;;;1.40;;
38683;SDS011;24910;53.248;-6.134;2023-02-28T08:44:35;5.00;;;0.90;;
38683;SDS011;24910;53.248;-6.134;2023-02-28T08:47:04;5.05;;;1.15;;
38683;SDS011;24910;53.248;-6.134;2023-02-28T08:49:33;4.43;;;1.10;;
38683;SDS011;24910;53.248;-6.134;2023-02-28T08:52:02;2.17;;;0.63;;
38683;SDS011;24910;53.248;-6.134;2023-02-28T08:54:31;4.93;;;1.27;;
38683;SDS011;24910;53.248;-6.134;2023-02-28T08:57:01;7.95;;;1.38;;
38683;SDS011;24910;53.248;-6.134;2023-02-28T08:59:31;5.25;;;1.05;;
38683;SDS011;24910;53.248;-6.134;2023-02-28T09:02:04;4.43;;;1.00;;
38683;SDS011;24910;53.248;-6.134;2023-02-28T09:04:33;2.33;;;0.73;;
38683;SDS011;24910;53.248;-6.134;2023-02-28T09:07:03;5.20;;;1.30;;
38683;SDS011;24910;53.248;-6.134;2023-02-28T09:09:32;6.57;;;1.00;;
38683;SDS011;24910;53.248;-6.134;2023-02-28T09:12:01;6.45;;;1.10;;
38683;SDS011;24910;53.248;-6.134;2023-02-28T09:14:30;5.40;;;1.25;;
38683;SDS011;24910;53.248;-6.134;2023-02-28T09:16:59;4.03;;;0.88;;
38683;SDS011;24910;53.248;-6.134;2023-02-28T09:19:33;4.75;;;1.27;;
38683;SDS011;24910;53.248;-6.134;2023-02-28T09:22:02;5.43;;;1.52;;
38683;SDS011;24910;53.248;-6.134;2023-02-28T09:24:31;3.58;;;1.05;;
38683;SDS011;24910;53.248;-6.134;2023-02-28T09:27:00;2.80;;;0.95;;
38683;SDS011;24910;53.248;-6.134;2023-02-28T09:29:33;3.85;;;1.05;;
38683;SDS011;24910;53.248;-6.134;2023-02-28T09:32:02;4.57;;;0.98;;
38683;SDS011;24910;53.248;-6.134;2023-02-28T09:34:34;8.30;;;1.70;;
38683;SDS011;24910;53.248;-6.134;2023-02-28T09:39:33;4.57;;;1.50;;
38683;SDS011;24910;53.248;-6.134;2023-02-28T09:42:02;4.82;;;1.98;;
38683;SDS011;24910;53.248;-6.134;2023-02-28T09:44:35;3.95;;;0.95;;
38683;SDS011;24910;53.248;-6.134;2023-02-28T09:47:08;4.43;;;1.50;;
38683;SDS011;24910;53.248;-6.134;2023-02-28T09:49:45;3.08;;;1.10;;
38683;SDS011;24910;53.248;-6.134;2023-02-28T09:52:17;1.58;;;0.75;;
38683;SDS011;24910;53.248;-6.134;2023-02-28T09:54:47;5.15;;;0.82;;
38683;SDS011;24910;53.248;-6.134;2023-02-28T09:57:17;4.50;;;0.98;;
38683;SDS011;24910;53.248;-6.134;2023-02-28T09:59:57;7.55;;;1.15;;
38683;SDS011;24910;53.248;-6.134;2023-02-28T10:02:47;2.08;;;1.23;;
38683;SDS011;24910;53.248;-6.134;2023-02-28T10:05:27;2.85;;;0.82;;
38683;SDS011;24910;53.248;-6.134;2023-02-28T10:08:11;5.13;;;1.17;;
38683;SDS011;24910;53.248;-6.134;2023-02-28T10:10:43;4.38;;;1.15;;
38683;SDS011;24910;53.248;-6.134;2023-02-28T10:13:20;3.88;;;0.75;;
38683;SDS011;24910;53.248;-6.134;2023-02-28T10:15:54;3.60;;;0.80;;
38683;SDS011;24910;53.248;-6.134;2023-02-28T10:18:27;4.47;;;0.70;;
38683;SDS011;24910;53.248;-6.134;2023-02-28T10:21:04;4.05;;;1.00;;
38683;SDS011;24910;53.248;-6.134;2023-02-28T10:26:08;3.15;;;0.88;;
38683;SDS011;24910;53.248;-6.134;2023-02-28T10:28:40;6.20;;;1.20;;
38683;SDS011;24910;53.248;-6.134;2023-02-28T10:31:10;1.92;;;0.75;;
38683;SDS011;24910;53.248;-6.134;2023-02-28T10:33:43;6.03;;;0.80;;
38683;SDS011;24910;53.248;-6.134;2023-02-28T10:36:15;5.22;;;0.80;;
38683;SDS011;24910;53.248;-6.134;2023-02-28T10:38:51;2.88;;;0.75;;
38683;SDS011;24910;53.248;-6.134;2023-02-28T10:41:31;4.60;;;0.65;;
38683;SDS011;24910;53.248;-6.134;2023-02-28T10:44:13;1.42;;;0.50;;
38683;SDS011;24910;53.248;-6.134;2023-02-28T10:46:46;5.30;;;0.80;;
38683;SDS011;24910;53.248;-6.134;2023-02-28T10:49:17;1.33;;;0.60;;
38683;SDS011;24910;53.248;-6.134;2023-02-28T10:51:51;1.17;;;0.68;;
38683;SDS011;24910;53.248;-6.134;2023-02-28T10:54:24;3.10;;;0.70;;
38683;SDS011;24910;53.248;-6.134;2023-02-28T10:57:08;4.43;;;0.70;;
38683;SDS011;24910;53.248;-6.134;2023-02-28T10:59:44;3.90;;;1.00;;
38683;SDS011;24910;53.248;-6.134;2023-02-28T11:02:28;3.35;;;0.82;;
38683;SDS011;24910;53.248;-6.134;2023-02-28T11:05:00;1.85;;;0.60;;
38683;SDS011;24910;53.248;-6.134;2023-02-28T11:07:31;2.80;;;0.80;;
38683;SDS011;24910;53.248;-6.134;2023-02-28T11:10:19;4.47;;;1.08;;
38683;SDS011;24910;53.248;-6.134;2023-02-28T11:12:53;2.08;;;0.68;;
38683;SDS011;24910;53.248;-6.134;2023-02-28T11:15:27;2.65;;;0.77;;
38683;SDS011;24910;53.248;-6.134;2023-02-28T11:17:58;3.97;;;0.65;;
38683;SDS011;24910;53.248;-6.134;2023-02-28T11:20:30;1.83;;;0.73;;
38683;SDS011;24910;53.248;-6.134;2023-02-28T11:23:03;4.10;;;1.27;;
38683;SDS011;24910;53.248;-6.134;2023-02-28T11:25:33;6.32;;;1.40;;
38683;SDS011;24910;53.248;-6.134;2023-02-28T11:28:06;4.35;;;0.80;;
38683;SDS011;24910;53.248;-6.134;2023-02-28T11:31:01;4.65;;;1.00;;
38683;SDS011;24910;53.248;-6.134;2023-02-28T11:33:37;3.83;;;0.75;;
38683;SDS011;24910;53.248;-6.134;2023-02-28T11:36:10;4.72;;;1.00;;
38683;SDS011;24910;53.248;-6.134;2023-02-28T11:38:42;6.28;;;1.15;;
38683;SDS011;24910;53.248;-6.134;2023-02-28T11:41:16;7.07;;;0.77;;
38683;SDS011;24910;53.248;-6.134;2023-02-28T11:44:10;3.60;;;0.80;;
38683;SDS011;24910;53.248;-6.134;2023-02-28T11:47:01;5.07;;;1.40;;
38683;SDS011;24910;53.248;-6.134;2023-02-28T11:49:37;4.57;;;1.35;;
38683;SDS011;24910;53.248;-6.134;2023-02-28T11:52:20;5.15;;;1.13;;
38683;SDS011;24910;53.248;-6.134;2023-02-28T11:54:59;5.18;;;1.45;;
38683;SDS011;24910;53.248;-6.134;2023-02-28T11:57:47;5.15;;;1.75;;
38683;SDS011;24910;53.248;-6.134;2023-02-28T12:00:36;3.95;;;1.70;;
38683;SDS011;24910;53.248;-6.134;2023-02-28T12:03:16;6.25;;;2.13;;
38683;SDS011;24910;53.248;-6.134;2023-02-28T12:05:57;6.22;;;2.28;;
38683;SDS011;24910;53.248;-6.134;2023-02-28T12:08:42;8.32;;;1.90;;
38683;SDS011;24910;53.248;-6.134;2023-02-28T12:11:23;4.90;;;1.70;;
38683;SDS011;24910;53.248;-6.134;2023-02-28T12:14:03;5.22;;;1.08;;
38683;SDS011;24910;53.248;-6.134;2023-02-28T12:16:51;6.85;;;1.05;;
38683;SDS011;24910;53.248;-6.134;2023-02-28T12:19:31;8.68;;;3.00;;
38683;SDS011;24910;53.248;-6.134;2023-02-28T12:22:15;5.32;;;1.73;;
38683;SDS011;24910;53.248;-6.134;2023-02-28T12:25:24;5.40;;;1.55;;
38683;SDS011;24910;53.248;-6.134;2023-02-28T12:28:13;7.75;;;1.23;;
38683;SDS011;24910;53.248;-6.134;2023-02-28T12:30:49;3.17;;;0.90;;
38683;SDS011;24910;53.248;-6.134;2023-02-28T12:33:22;6.40;;;1.20;;
38683;SDS011;24910;53.248;-6.134;2023-02-28T12:35:57;4.68;;;1.17;;
38683;SDS011;24910;53.248;-6.134;2023-02-28T12:38:28;2.13;;;1.10;;
38683;SDS011;24910;53.248;-6.134;2023-02-28T12:41:03;5.63;;;1.00;;
38683;SDS011;24910;53.248;-6.134;2023-02-28T12:43:42;2.75;;;0.90;;
38683;SDS011;24910;53.248;-6.134;2023-02-28T12:46:15;2.67;;;1.20;;
38683;SDS011;24910;53.248;-6.134;2023-02-28T12:48:50;3.33;;;1.20;;
38683;SDS011;24910;53.248;-6.134;2023-02-28T12:51:25;4.43;;;0.90;;
38683;SDS011;24910;53.248;-6.134;2023-02-28T12:54:01;4.95;;;1.00;;
38683;SDS011;24910;53.248;-6.134;2023-02-28T12:56:42;6.30;;;1.10;;
38683;SDS011;24910;53.248;-6.134;2023-02-28T12:59:21;4.78;;;1.10;;
38683;SDS011;24910;53.248;-6.134;2023-02-28T13:02:00;4.47;;;1.27;;
38683;SDS011;24910;53.248;-6.134;2023-02-28T13:04:47;2.17;;;1.08;;
38683;SDS011;24910;53.248;-6.134;2023-02-28T13:07:40;6.90;;;1.30;;
38683;SDS011;24910;53.248;-6.134;2023-02-28T13:10:37;2.78;;;1.00;;
38683;SDS011;24910;53.248;-6.134;2023-02-28T13:13:11;7.57;;;1.70;;
38683;SDS011;24910;53.248;-6.134;2023-02-28T13:15:58;5.22;;;1.40;;
38683;SDS011;24910;53.248;-6.134;2023-02-28T13:18:32;5.53;;;1.58;;
38683;SDS011;24910;53.248;-6.134;2023-02-28T13:21:05;4.90;;;1.17;;
38683;SDS011;24910;53.248;-6.134;2023-02-28T13:23:39;4.85;;;1.13;;
38683;SDS011;24910;53.248;-6.134;2023-02-28T13:29:40;8.10;;;1.10;;
38683;SDS011;24910;53.248;-6.134;2023-02-28T13:32:32;4.32;;;1.38;;
38683;SDS011;24910;53.248;-6.134;2023-02-28T13:35:12;4.18;;;1.13;;
38683;SDS011;24910;53.248;-6.134;2023-02-28T13:38:23;4.75;;;1.40;;
38683;SDS011;24910;53.248;-6.134;2023-02-28T13:44:16;5.25;;;1.35;;
38683;SDS011;24910;53.248;-6.134;2023-02-28T13:49:50;4.80;;;1.50;;
38683;SDS011;24910;53.248;-6.134;2023-02-28T13:52:22;6.05;;;1.90;;
38683;SDS011;24910;53.248;-6.134;2023-02-28T13:54:54;3.17;;;1.35;;
38683;SDS011;24910;53.248;-6.134;2023-02-28T13:57:32;5.72;;;1.42;;
38683;SDS011;24910;53.248;-6.134;2023-02-28T14:00:16;3.05;;;1.25;;
38683;SDS011;24910;53.248;-6.134;2023-02-28T14:03:00;5.65;;;1.20;;
38683;SDS011;24910;53.248;-6.134;2023-02-28T14:05:46;2.30;;;1.15;;
38683;SDS011;24910;53.248;-6.134;2023-02-28T14:08:16;3.97;;;1.20;;
38683;SDS011;24910;53.248;-6.134;2023-02-28T14:10:49;4.20;;;1.02;;
38683;SDS011;24910;53.248;-6.134;2023-02-28T14:13:38;3.33;;;1.20;;
38683;SDS011;24910;53.248;-6.134;2023-02-28T14:16:13;4.40;;;0.93;;
38683;SDS011;24910;53.248;-6.134;2023-02-28T14:18:47;3.17;;;1.27;;
38683;SDS011;24910;53.248;-6.134;2023-02-28T14:21:22;3.00;;;1.20;;
38683;SDS011;24910;53.248;-6.134;2023-02-28T14:24:02;3.92;;;1.60;;
38683;SDS011;24910;53.248;-6.134;2023-02-28T14:30:03;5.90;;;2.10;;
38683;SDS011;24910;53.248;-6.134;2023-02-28T14:35:39;4.43;;;1.77;;
38683;SDS011;24910;53.248;-6.134;2023-02-28T14:38:17;8.85;;;1.73;;
38683;SDS011;24910;53.248;-6.134;2023-02-28T14:40:48;4.90;;;1.80;;
38683;SDS011;24910;53.248;-6.134;2023-02-28T14:43:22;7.82;;;1.90;;
38683;SDS011;24910;53.248;-6.134;2023-02-28T14:45:54;4.85;;;1.42;;
38683;SDS011;24910;53.248;-6.134;2023-02-28T14:48:25;5.05;;;1.40;;
38683;SDS011;24910;53.248;-6.134;2023-02-28T14:51:01;2.28;;;1.15;;
38683;SDS011;24910;53.248;-6.134;2023-02-28T14:53:35;6.25;;;1.48;;
38683;SDS011;24910;53.248;-6.134;2023-02-28T14:56:05;6.15;;;1.40;;
38683;SDS011;24910;53.248;-6.134;2023-02-28T14:58:50;6.10;;;1.92;;
38683;SDS011;24910;53.248;-6.134;2023-02-28T15:01:21;6.65;;;1.38;;
38683;SDS011;24910;53.248;-6.134;2023-02-28T15:03:58;7.53;;;1.42;;
38683;SDS011;24910;53.248;-6.134;2023-02-28T15:06:30;2.97;;;1.40;;
38683;SDS011;24910;53.248;-6.134;2023-02-28T15:09:08;8.82;;;1.60;;
38683;SDS011;24910;53.248;-6.134;2023-02-28T15:11:39;7.00;;;1.80;;
38683;SDS011;24910;53.248;-6.134;2023-02-28T15:14:13;4.40;;;1.67;;
38683;SDS011;24910;53.248;-6.134;2023-02-28T15:16:48;4.35;;;1.58;;
38683;SDS011;24910;53.248;-6.134;2023-02-28T15:19:22;5.80;;;1.63;;
38683;SDS011;24910;53.248;-6.134;2023-02-28T15:21:54;5.05;;;2.00;;
38683;SDS011;24910;53.248;-6.134;2023-02-28T15:24:33;5.68;;;1.85;;
38683;SDS011;24910;53.248;-6.134;2023-02-28T15:27:06;8.13;;;1.92;;
38683;SDS011;24910;53.248;-6.134;2023-02-28T15:29:42;4.75;;;1.92;;
38683;SDS011;24910;53.248;-6.134;2023-02-28T15:32:23;4.45;;;1.70;;
38683;SDS011;24910;53.248;-6.134;2023-02-28T15:34:54;10.25;;;1.73;;
38683;SDS011;24910;53.248;-6.134;2023-02-28T15:37:38;5.93;;;1.95;;
38683;SDS011;24910;53.248;-6.134;2023-02-28T15:40:15;3.83;;;2.03;;
38683;SDS011;24910;53.248;-6.134;2023-02-28T15:45:44;7.90;;;3.05;;
38683;SDS011;24910;53.248;-6.134;2023-02-28T15:48:16;7.18;;;1.70;;
38683;SDS011;24910;53.248;-6.134;2023-02-28T15:50:49;7.03;;;1.92;;
38683;SDS011;24910;53.248;-6.134;2023-02-28T15:53:21;7.90;;;2.25;;